Time;durP1;ratioP1;P1;durP2;ratioP2;P2;SDS_P1;SDS_P2;PMS_P1;PMS_P2;Temp;Humidity;BMP_temperature;BMP_pressure;BME280_temperature;BME280_humidity;BME280_pressure;Samples;Min_cycle;Max_cycle;Signal;HPM_P1;HPM_P2
2023/10/26 00:01:11;;;;;;;31.40;15.57;;;9.70;99.90;;;;;;4973345;28;20054;-68
2023/10/26 00:03:36;;;;;;;37.97;16.88;;;9.80;99.90;;;;;;4967843;28;20049;-69
2023/10/26 00:06:02;;;;;;;38.78;16.67;;;9.70;99.90;;;;;;4969566;28;20026;-69
2023/10/26 00:08:27;;;;;;;38.85;17.10;;;9.80;99.90;;;;;;4967990;28;20046;-68
2023/10/26 00:10:53;;;;;;;40.63;18.15;;;9.70;99.90;;;;;;4968868;28;20131;-68
2023/10/26 00:13:18;;;;;;;42.40;18.63;;;9.70;99.90;;;;;;4964222;28;20493;-69
2023/10/26 00:15:44;;;;;;;42.67;19.02;;;9.70;99.90;;;;;;4960631;28;20057;-69
2023/10/26 00:18:11;;;;;;;44.60;20.10;;;9.80;99.90;;;;;;4970444;28;20043;-68
2023/10/26 00:20:37;;;;;;;48.67;19.65;;;9.80;99.90;;;;;;4985815;28;20054;-68
2023/10/26 00:23:04;;;;;;;48.30;20.38;;;9.70;99.90;;;;;;4959455;28;20034;-68
2023/10/26 00:25:30;;;;;;;58.30;22.42;;;9.80;99.90;;;;;;4954063;28;20661;-69
2023/10/26 00:27:55;;;;;;;48.13;20.92;;;9.80;99.90;;;;;;4977638;28;20042;-68
2023/10/26 00:30:21;;;;;;;52.22;21.20;;;9.70;99.90;;;;;;4971530;28;20101;-68
2023/10/26 00:32:47;;;;;;;53.35;21.92;;;9.70;99.90;;;;;;4951706;28;20092;-69
2023/10/26 00:35:12;;;;;;;51.40;21.10;;;9.80;99.90;;;;;;4978414;28;20034;-68
2023/10/26 00:37:38;;;;;;;46.83;20.55;;;9.70;99.90;;;;;;4966086;28;20050;-68
2023/10/26 00:40:04;;;;;;;49.33;22.35;;;9.70;99.90;;;;;;4972511;28;20497;-69
2023/10/26 00:42:30;;;;;;;58.20;23.83;;;9.80;99.90;;;;;;4973962;28;20118;-69
2023/10/26 00:44:56;;;;;;;46.15;22.33;;;9.70;99.90;;;;;;4982313;28;20153;-68
2023/10/26 00:47:23;;;;;;;50.30;21.60;;;9.70;99.90;;;;;;4969433;28;20125;-68
2023/10/26 00:49:49;;;;;;;56.00;22.92;;;9.80;99.90;;;;;;4966327;28;20084;-69
2023/10/26 00:52:15;;;;;;;47.25;22.98;;;9.70;99.90;;;;;;4970868;28;20125;-68
2023/10/26 00:54:42;;;;;;;53.08;22.88;;;9.70;99.90;;;;;;4970889;28;20554;-68
2023/10/26 00:57:08;;;;;;;54.50;23.17;;;9.70;99.90;;;;;;4960983;28;20061;-68
2023/10/26 00:59:34;;;;;;;61.45;24.92;;;9.60;99.90;;;;;;4979881;28;20070;-68
2023/10/26 01:02:02;;;;;;;56.25;24.48;;;9.60;99.90;;;;;;4962179;28;20822;-69
2023/10/26 01:04:27;;;;;;;59.95;25.38;;;9.60;99.90;;;;;;4964283;28;20493;-68
2023/10/26 01:06:53;;;;;;;61.55;26.80;;;9.50;99.90;;;;;;4970890;28;20026;-68
2023/10/26 01:09:20;;;;;;;65.55;26.70;;;9.50;99.90;;;;;;4968459;28;20137;-68
2023/10/26 01:11:46;;;;;;;69.63;27.27;;;9.40;99.90;;;;;;4965531;28;20046;-68
2023/10/26 01:14:11;;;;;;;62.35;26.10;;;9.40;99.90;;;;;;4963283;28;20127;-69
2023/10/26 01:16:37;;;;;;;65.40;27.00;;;9.40;99.90;;;;;;4964199;28;20049;-68
2023/10/26 01:19:04;;;;;;;65.30;27.23;;;9.50;99.90;;;;;;4979571;28;20224;-69
2023/10/26 01:21:31;;;;;;;85.70;31.40;;;9.50;99.90;;;;;;4973268;28;20497;-68
2023/10/26 01:23:57;;;;;;;75.32;29.13;;;9.50;99.90;;;;;;4982176;28;20035;-68
2023/10/26 01:26:23;;;;;;;62.55;28.08;;;9.50;99.90;;;;;;4965555;28;20068;-67
2023/10/26 01:28:49;;;;;;;70.15;28.60;;;9.50;99.90;;;;;;4974216;28;20042;-69
2023/10/26 01:31:18;;;;;;;69.18;28.33;;;9.50;99.90;;;;;;4980984;28;20137;-68
2023/10/26 01:33:45;;;;;;;77.63;29.83;;;9.50;99.90;;;;;;4965127;28;20092;-68
2023/10/26 01:36:11;;;;;;;70.65;28.40;;;9.50;99.90;;;;;;4966560;28;20431;-69
2023/10/26 01:38:37;;;;;;;66.78;28.73;;;9.50;99.90;;;;;;4951199;28;20034;-69
2023/10/26 01:41:03;;;;;;;67.85;28.60;;;9.40;99.90;;;;;;4963651;28;20171;-68
2023/10/26 01:43:29;;;;;;;67.43;29.48;;;9.30;99.90;;;;;;4967135;28;20121;-68
2023/10/26 01:45:55;;;;;;;82.43;31.10;;;9.30;99.90;;;;;;4956647;28;20157;-68
2023/10/26 01:48:23;;;;;;;65.68;27.15;;;9.20;99.90;;;;;;4954435;28;20123;-70
2023/10/26 01:50:48;;;;;;;152.90;36.67;;;9.20;99.90;;;;;;4978663;28;20042;-68
2023/10/26 01:53:14;;;;;;;63.63;26.63;;;9.10;99.90;;;;;;4970081;28;20061;-69
2023/10/26 01:55:40;;;;;;;67.53;28.38;;;9.10;99.90;;;;;;4962079;28;20049;-69
2023/10/26 01:58:06;;;;;;;63.38;28.55;;;9.10;99.90;;;;;;4940314;28;20043;-69
2023/10/26 02:00:31;;;;;;;70.25;27.70;;;9.10;99.90;;;;;;4977328;28;20044;-69
2023/10/26 02:03:00;;;;;;;69.43;27.95;;;9.00;99.90;;;;;;4965629;28;20097;-69
2023/10/26 02:05:25;;;;;;;75.35;28.77;;;9.10;99.90;;;;;;4966142;28;20039;-68
2023/10/26 02:07:51;;;;;;;97.35;31.98;;;9.00;99.90;;;;;;4964547;28;20038;-69
2023/10/26 02:10:18;;;;;;;67.28;27.92;;;9.00;99.90;;;;;;4963321;28;20088;-68
2023/10/26 02:12:44;;;;;;;73.45;28.52;;;9.00;99.90;;;;;;4981884;28;20046;-68
2023/10/26 02:15:11;;;;;;;82.65;29.52;;;8.90;99.90;;;;;;4982729;28;20057;-68
2023/10/26 02:17:40;;;;;;;78.00;29.10;;;9.00;99.90;;;;;;4960794;28;20046;-68
2023/10/26 02:20:06;;;;;;;68.32;29.15;;;8.90;99.90;;;;;;4954509;28;20046;-69
2023/10/26 02:22:32;;;;;;;70.90;27.42;;;9.00;99.90;;;;;;4978528;28;20050;-68
2023/10/26 02:24:57;;;;;;;75.90;28.92;;;8.90;99.90;;;;;;4952843;28;20431;-68
2023/10/26 02:27:23;;;;;;;71.93;28.65;;;9.00;99.90;;;;;;4968931;28;20113;-68
2023/10/26 02:29:48;;;;;;;75.95;28.42;;;9.00;99.90;;;;;;4969978;28;20042;-68
2023/10/26 02:32:14;;;;;;;79.28;30.40;;;9.00;99.90;;;;;;4966377;28;20121;-69
2023/10/26 02:34:39;;;;;;;90.65;31.13;;;9.00;99.90;;;;;;4945938;28;20053;-69
2023/10/26 02:37:05;;;;;;;84.57;32.53;;;9.10;99.90;;;;;;4969870;28;20091;-69
2023/10/26 02:39:30;;;;;;;82.43;30.63;;;9.00;99.90;;;;;;4967894;28;20112;-68
2023/10/26 02:41:56;;;;;;;74.28;29.83;;;9.00;99.90;;;;;;4961432;28;20038;-68
2023/10/26 02:44:21;;;;;;;76.22;30.40;;;9.10;99.90;;;;;;4957354;28;20045;-69
2023/10/26 02:46:47;;;;;;;69.65;28.85;;;9.00;99.90;;;;;;4967127;28;20479;-68
2023/10/26 02:49:13;;;;;;;68.85;28.55;;;9.00;99.90;;;;;;4960891;28;20113;-68
2023/10/26 02:51:38;;;;;;;77.38;29.98;;;9.10;99.90;;;;;;4975693;28;20042;-69
2023/10/26 02:54:04;;;;;;;88.57;31.17;;;9.00;99.90;;;;;;4962441;28;20732;-68
2023/10/26 02:56:29;;;;;;;81.18;29.88;;;9.10;99.90;;;;;;4966373;28;20501;-69
2023/10/26 02:58:55;;;;;;;83.90;31.40;;;9.00;99.90;;;;;;4968273;28;20156;-69
2023/10/26 03:01:20;;;;;;;77.68;30.23;;;9.20;99.90;;;;;;4966784;28;20049;-68
2023/10/26 03:03:46;;;;;;;70.38;29.13;;;9.10;99.90;;;;;;4965452;28;20316;-69
2023/10/26 03:06:12;;;;;;;81.97;30.00;;;9.10;99.90;;;;;;4965343;28;20043;-69
2023/10/26 03:08:37;;;;;;;86.15;30.50;;;9.20;99.90;;;;;;4979141;28;20034;-68
2023/10/26 03:11:03;;;;;;;90.38;32.70;;;9.20;99.90;;;;;;4966534;28;20125;-69
2023/10/26 03:13:29;;;;;;;97.55;32.97;;;9.20;99.90;;;;;;4966534;28;20049;-68
2023/10/26 03:15:54;;;;;;;78.45;31.35;;;9.20;99.90;;;;;;4948021;28;20046;-68
2023/10/26 03:18:20;;;;;;;87.18;31.67;;;9.10;99.90;;;;;;4983926;28;20093;-68
2023/10/26 03:20:46;;;;;;;75.68;29.90;;;9.20;99.90;;;;;;4971690;28;20078;-69
2023/10/26 03:23:11;;;;;;;67.15;28.55;;;9.20;99.90;;;;;;4957965;28;20041;-68
2023/10/26 03:25:37;;;;;;;73.15;28.98;;;9.20;99.90;;;;;;4956747;28;20049;-68
2023/10/26 03:28:04;;;;;;;89.75;31.85;;;9.30;99.90;;;;;;4966052;28;20073;-68
2023/10/26 03:30:29;;;;;;;75.20;31.08;;;9.20;99.90;;;;;;4969103;28;20109;-68
2023/10/26 03:32:55;;;;;;;74.90;29.38;;;9.30;99.90;;;;;;4968143;28;20081;-68
2023/10/26 03:35:20;;;;;;;95.45;33.67;;;9.20;99.90;;;;;;4965694;28;20128;-68
2023/10/26 03:37:46;;;;;;;93.40;32.58;;;9.30;99.90;;;;;;4969737;28;20042;-69
2023/10/26 03:40:14;;;;;;;91.05;31.10;;;9.30;99.90;;;;;;4971234;28;20414;-68
2023/10/26 03:42:40;;;;;;;80.82;30.58;;;9.30;99.90;;;;;;4967221;28;20499;-68
2023/10/26 03:45:06;;;;;;;85.63;32.70;;;9.30;99.90;;;;;;4968373;28;20125;-68
2023/10/26 03:47:31;;;;;;;84.25;31.60;;;9.30;99.90;;;;;;4963139;28;20171;-68
2023/10/26 03:49:57;;;;;;;87.60;32.63;;;9.30;99.90;;;;;;4958296;28;20038;-69
2023/10/26 03:52:22;;;;;;;133.90;35.53;;;9.30;99.90;;;;;;4975664;28;20778;-68
2023/10/26 03:54:48;;;;;;;91.20;31.80;;;9.30;99.90;;;;;;4952922;28;20049;-68
2023/10/26 03:57:17;;;;;;;94.15;32.90;;;9.30;99.90;;;;;;4971313;28;20109;-68
2023/10/26 03:59:42;;;;;;;85.28;31.30;;;9.30;99.90;;;;;;4973121;28;20146;-69
2023/10/26 04:02:08;;;;;;;83.63;31.67;;;9.30;99.90;;;;;;4965378;28;20168;-68
2023/10/26 04:04:34;;;;;;;87.00;31.88;;;9.30;99.90;;;;;;4961480;28;20048;-69
2023/10/26 04:06:59;;;;;;;85.30;31.63;;;9.30;99.90;;;;;;4973172;28;20120;-69
2023/10/26 04:09:25;;;;;;;86.85;31.77;;;9.30;99.90;;;;;;4983320;28;20042;-68
2023/10/26 04:11:50;;;;;;;92.97;32.70;;;9.30;99.90;;;;;;4973806;28;20640;-68
2023/10/26 04:14:17;;;;;;;80.95;30.10;;;9.30;99.90;;;;;;4955591;28;20164;-68
2023/10/26 04:16:47;;;;;;;79.20;29.88;;;9.30;99.90;;;;;;4982270;28;20207;-68
2023/10/26 04:19:13;;;;;;;79.60;30.08;;;9.20;99.90;;;;;;4963683;28;20163;-69
2023/10/26 04:21:39;;;;;;;73.30;30.30;;;9.30;99.90;;;;;;4959303;28;20853;-68
2023/10/26 04:24:04;;;;;;;78.93;28.80;;;9.30;99.90;;;;;;4962668;28;20054;-68
2023/10/26 04:26:30;;;;;;;78.40;29.60;;;9.30;99.90;;;;;;4975171;28;20116;-68
2023/10/26 04:28:56;;;;;;;82.32;30.17;;;9.30;99.90;;;;;;4988578;28;20546;-68
2023/10/26 04:31:21;;;;;;;92.90;32.78;;;9.30;99.90;;;;;;4964500;28;20430;-69
2023/10/26 04:33:48;;;;;;;94.38;32.58;;;9.30;99.90;;;;;;4964891;28;20052;-68
2023/10/26 04:36:14;;;;;;;87.70;31.80;;;9.40;99.90;;;;;;4956098;28;20129;-69
2023/10/26 04:38:39;;;;;;;81.70;29.25;;;9.40;99.90;;;;;;4970968;28;20688;-68
2023/10/26 04:41:05;;;;;;;86.72;28.85;;;9.30;99.90;;;;;;4972099;28;20042;-68
2023/10/26 04:43:31;;;;;;;88.93;31.83;;;9.40;99.90;;;;;;4950871;28;20120;-68
2023/10/26 04:45:57;;;;;;;84.72;31.50;;;9.30;99.90;;;;;;4963736;28;20079;-68
2023/10/26 04:48:22;;;;;;;83.43;30.75;;;9.30;99.90;;;;;;4965520;28;20050;-68
2023/10/26 04:50:48;;;;;;;82.93;31.38;;;9.30;99.90;;;;;;4962339;28;20383;-69
2023/10/26 04:53:13;;;;;;;81.10;28.15;;;9.30;99.90;;;;;;4958853;28;20092;-68
2023/10/26 04:55:39;;;;;;;82.63;29.63;;;9.40;99.90;;;;;;4964105;28;20129;-69
2023/10/26 04:58:04;;;;;;;75.47;28.58;;;9.30;99.90;;;;;;4964192;28;20058;-68
2023/10/26 05:00:32;;;;;;;79.20;28.77;;;9.30;99.90;;;;;;4964735;28;20065;-69
2023/10/26 05:02:57;;;;;;;79.15;28.38;;;9.30;99.90;;;;;;4962900;28;20481;-69
2023/10/26 05:05:23;;;;;;;82.88;29.85;;;9.30;99.90;;;;;;4967082;28;20042;-69
2023/10/26 05:07:48;;;;;;;92.88;31.20;;;9.20;99.90;;;;;;4980526;28;20130;-70
2023/10/26 05:10:14;;;;;;;77.88;28.15;;;9.20;99.90;;;;;;4968049;28;20576;-68
2023/10/26 05:12:40;;;;;;;74.88;29.38;;;9.30;99.90;;;;;;4966171;28;20051;-68
2023/10/26 05:15:06;;;;;;;66.57;28.73;;;9.10;99.90;;;;;;4970931;28;20069;-68
2023/10/26 05:17:31;;;;;;;116.55;32.92;;;9.20;99.90;;;;;;4972213;28;20731;-68
2023/10/26 05:19:57;;;;;;;78.90;29.10;;;9.20;99.90;;;;;;4973181;28;20167;-68
2023/10/26 05:22:23;;;;;;;76.63;29.13;;;9.10;99.90;;;;;;4979849;28;20081;-68
2023/10/26 05:24:48;;;;;;;76.00;28.75;;;9.10;99.90;;;;;;4976219;28;20074;-69
2023/10/26 05:27:14;;;;;;;70.18;27.02;;;9.10;99.90;;;;;;4962485;28;20062;-68
2023/10/26 05:29:40;;;;;;;87.30;29.45;;;9.10;99.90;;;;;;4967230;28;20514;-68
2023/10/26 05:32:05;;;;;;;95.45;30.65;;;9.10;99.90;;;;;;4948666;28;20043;-68
2023/10/26 05:34:31;;;;;;;75.55;28.02;;;9.10;99.90;;;;;;4960611;28;20664;-69
2023/10/26 05:36:57;;;;;;;87.10;30.17;;;9.10;99.90;;;;;;4962472;28;20104;-69
2023/10/26 05:39:23;;;;;;;83.53;29.90;;;9.10;99.90;;;;;;4981096;28;20047;-68
2023/10/26 05:41:48;;;;;;;81.65;30.02;;;9.10;99.90;;;;;;4972736;28;20042;-69
2023/10/26 05:44:14;;;;;;;77.57;27.75;;;9.10;99.90;;;;;;4968813;28;20490;-68
2023/10/26 05:46:40;;;;;;;84.00;28.70;;;9.10;99.90;;;;;;4960144;28;20039;-69
2023/10/26 05:49:08;;;;;;;87.40;30.50;;;9.10;99.90;;;;;;4972695;28;20038;-68
2023/10/26 05:51:34;;;;;;;83.15;29.52;;;9.10;99.90;;;;;;4965377;28;20764;-69
2023/10/26 05:54:00;;;;;;;92.88;30.27;;;9.10;99.90;;;;;;4970646;28;20042;-68
2023/10/26 05:56:26;;;;;;;67.70;26.25;;;9.00;99.90;;;;;;4973196;28;20567;-68
2023/10/26 05:58:51;;;;;;;85.90;28.45;;;9.00;99.90;;;;;;4969627;28;20058;-69
2023/10/26 06:01:17;;;;;;;78.30;28.48;;;9.00;99.90;;;;;;4971730;28;20646;-68
2023/10/26 06:03:44;;;;;;;85.25;29.80;;;9.00;99.90;;;;;;4966579;28;20043;-68
2023/10/26 06:06:10;;;;;;;102.75;30.35;;;8.90;99.90;;;;;;4963501;28;20113;-68
2023/10/26 06:08:37;;;;;;;109.15;29.75;;;8.90;99.90;;;;;;4983666;28;20057;-67
2023/10/26 06:11:02;;;;;;;75.22;25.90;;;8.80;99.90;;;;;;4969020;28;20042;-68
2023/10/26 06:13:28;;;;;;;71.03;24.83;;;8.80;99.90;;;;;;4965797;28;20426;-69
2023/10/26 06:15:53;;;;;;;70.53;25.33;;;8.70;99.90;;;;;;4968277;28;20045;-68
2023/10/26 06:18:19;;;;;;;65.07;24.60;;;8.70;99.90;;;;;;4952595;28;20129;-69
2023/10/26 06:20:56;;;;;;;84.97;26.45;;;8.70;99.90;;;;;;4949205;28;20117;-68
2023/10/26 06:23:22;;;;;;;55.65;23.42;;;8.60;99.90;;;;;;4967309;28;20153;-69
2023/10/26 06:25:48;;;;;;;61.92;24.27;;;8.50;99.90;;;;;;4972323;28;20125;-68
2023/10/26 06:28:13;;;;;;;105.78;26.25;;;8.50;99.90;;;;;;4966248;28;20057;-69
2023/10/26 06:30:39;;;;;;;59.85;24.38;;;8.60;99.90;;;;;;4984624;28;20062;-69
2023/10/26 06:33:04;;;;;;;63.13;23.63;;;8.60;99.90;;;;;;4966660;28;20104;-69
2023/10/26 06:35:30;;;;;;;67.05;23.23;;;8.50;99.90;;;;;;4970621;28;20042;-68
2023/10/26 06:37:56;;;;;;;110.97;26.73;;;8.50;99.90;;;;;;4969223;28;20042;-68
2023/10/26 06:40:21;;;;;;;62.92;23.90;;;8.40;99.90;;;;;;4965428;28;20129;-68
2023/10/26 06:42:47;;;;;;;61.55;24.58;;;8.50;99.90;;;;;;4966302;28;20076;-68
2023/10/26 06:45:12;;;;;;;77.32;25.88;;;8.50;99.90;;;;;;4973766;28;20044;-68
2023/10/26 06:47:39;;;;;;;74.03;24.48;;;8.40;99.90;;;;;;4967907;28;20043;-68
2023/10/26 06:50:06;;;;;;;69.28;24.42;;;8.40;99.90;;;;;;4963523;28;20455;-68
2023/10/26 06:52:31;;;;;;;61.90;24.17;;;8.50;99.90;;;;;;4972175;28;20550;-67
2023/10/26 06:54:58;;;;;;;140.23;30.50;;;8.50;99.90;;;;;;4968382;28;20058;-68
2023/10/26 06:57:24;;;;;;;74.78;25.33;;;8.50;99.90;;;;;;4979542;28;20137;-69
2023/10/26 06:59:49;;;;;;;78.03;26.60;;;8.50;99.90;;;;;;4970569;28;20054;-68
2023/10/26 07:02:15;;;;;;;82.90;27.65;;;8.60;99.90;;;;;;4966020;28;20051;-68
2023/10/26 07:04:40;;;;;;;87.45;27.25;;;8.60;99.90;;;;;;4988773;28;20107;-68
2023/10/26 07:07:07;;;;;;;71.18;26.23;;;8.60;99.90;;;;;;4977279;28;20046;-67
2023/10/26 07:09:33;;;;;;;70.60;25.10;;;8.70;99.90;;;;;;4972440;28;20090;-68
2023/10/26 07:11:59;;;;;;;82.63;26.95;;;8.70;99.90;;;;;;4985805;28;20496;-68
2023/10/26 07:14:25;;;;;;;79.18;27.15;;;8.70;99.90;;;;;;4969452;28;20036;-68
2023/10/26 07:16:51;;;;;;;75.18;26.63;;;8.80;99.90;;;;;;4972169;28;20483;-68
2023/10/26 07:19:16;;;;;;;77.03;26.38;;;8.90;99.90;;;;;;4978871;28;20112;-68
2023/10/26 07:21:44;;;;;;;75.15;26.52;;;9.00;99.90;;;;;;4972486;28;20147;-68
2023/10/26 07:24:10;;;;;;;100.03;28.45;;;9.00;99.90;;;;;;4972383;28;20120;-72
2023/10/26 07:26:35;;;;;;;74.28;26.60;;;9.00;99.90;;;;;;4973091;28;20386;-69
2023/10/26 07:29:01;;;;;;;75.80;27.65;;;9.10;99.90;;;;;;4972967;28;20038;-68
2023/10/26 07:31:27;;;;;;;74.38;27.23;;;9.10;99.90;;;;;;4975463;28;20703;-68
2023/10/26 07:33:52;;;;;;;67.78;26.77;;;9.20;99.90;;;;;;4973414;28;20126;-68
2023/10/26 07:36:18;;;;;;;78.68;27.45;;;9.30;99.90;;;;;;4973530;28;20109;-68
2023/10/26 07:38:44;;;;;;;85.53;29.50;;;9.40;99.90;;;;;;4974819;28;20034;-68
2023/10/26 07:41:10;;;;;;;92.57;31.73;;;9.40;99.90;;;;;;4971182;28;20035;-68
2023/10/26 07:43:35;;;;;;;81.93;29.08;;;9.50;99.90;;;;;;4971670;28;20038;-68
2023/10/26 07:46:01;;;;;;;80.13;30.23;;;9.60;99.90;;;;;;4991746;28;20458;-69
2023/10/26 07:48:27;;;;;;;75.20;26.33;;;9.70;99.90;;;;;;4986316;28;20475;-67
2023/10/26 07:50:52;;;;;;;92.55;30.58;;;9.70;99.90;;;;;;4987651;28;20453;-69
2023/10/26 07:53:18;;;;;;;84.07;31.20;;;9.80;99.90;;;;;;4973589;28;20042;-69
2023/10/26 07:55:44;;;;;;;86.07;31.75;;;10.00;99.90;;;;;;4983660;28;20049;-69
2023/10/26 07:58:09;;;;;;;84.75;30.70;;;9.90;99.90;;;;;;4973392;28;20507;-68
2023/10/26 08:00:37;;;;;;;80.55;29.15;;;9.80;99.90;;;;;;4972008;28;20422;-69
2023/10/26 08:03:03;;;;;;;87.53;30.73;;;9.90;99.90;;;;;;4971118;28;20196;-69
2023/10/26 08:05:29;;;;;;;70.65;28.75;;;9.80;99.90;;;;;;4971007;28;20169;-68
2023/10/26 08:07:55;;;;;;;74.10;26.95;;;9.90;99.90;;;;;;4973262;28;20046;-69
2023/10/26 08:10:20;;;;;;;79.00;29.77;;;9.90;99.90;;;;;;4970530;28;20073;-68
2023/10/26 08:12:49;;;;;;;75.55;28.50;;;9.70;99.90;;;;;;4970501;28;20045;-69
2023/10/26 08:15:14;;;;;;;76.22;29.45;;;9.70;99.90;;;;;;4974593;28;20038;-69
2023/10/26 08:17:40;;;;;;;78.70;29.33;;;9.90;99.90;;;;;;4968091;28;20137;-69
2023/10/26 08:20:09;;;;;;;69.07;27.45;;;9.80;99.90;;;;;;4986817;28;20383;-69
2023/10/26 08:22:35;;;;;;;75.40;27.40;;;9.80;99.90;;;;;;4972915;28;20146;-68
2023/10/26 08:25:04;;;;;;;66.47;25.48;;;9.80;99.90;;;;;;4973654;28;20034;-68
2023/10/26 08:27:31;;;;;;;63.80;25.38;;;9.80;99.90;;;;;;4973600;28;20130;-70
2023/10/26 08:29:57;;;;;;;58.10;25.02;;;9.90;99.90;;;;;;4957807;28;20116;-69
2023/10/26 08:32:23;;;;;;;56.33;25.20;;;9.80;99.90;;;;;;4971098;28;20042;-70
2023/10/26 08:34:48;;;;;;;62.42;24.30;;;9.80;99.90;;;;;;4966846;28;20057;-70
2023/10/26 08:37:14;;;;;;;61.50;24.80;;;9.80;99.90;;;;;;4972938;28;20038;-69
2023/10/26 08:39:40;;;;;;;64.50;25.67;;;9.90;99.90;;;;;;4971366;28;20089;-70
2023/10/26 08:42:06;;;;;;;63.80;25.17;;;10.10;99.90;;;;;;4972515;28;20046;-68
2023/10/26 08:44:32;;;;;;;57.35;24.48;;;10.10;99.90;;;;;;4968060;28;20026;-69
2023/10/26 08:47:00;;;;;;;60.95;24.10;;;10.00;99.90;;;;;;4971291;28;20034;-68
2023/10/26 08:49:30;;;;;;;54.00;23.85;;;9.90;99.90;;;;;;4977567;28;20157;-70
2023/10/26 08:51:56;;;;;;;51.92;24.02;;;9.90;99.90;;;;;;4988599;28;20089;-70
2023/10/26 08:54:21;;;;;;;55.30;24.85;;;9.90;99.90;;;;;;4969189;28;20704;-71
2023/10/26 08:56:47;;;;;;;56.08;23.63;;;9.70;99.90;;;;;;4974102;28;20042;-70
2023/10/26 08:59:13;;;;;;;48.85;21.80;;;9.90;99.90;;;;;;4968609;28;20049;-68
2023/10/26 09:01:39;;;;;;;57.30;22.23;;;9.70;99.90;;;;;;4967218;28;20034;-70
2023/10/26 09:04:10;;;;;;;46.05;21.45;;;9.70;99.90;;;;;;4970488;28;20038;-71
2023/10/26 09:06:43;;;;;;;50.55;21.75;;;9.70;99.90;;;;;;4966774;28;20034;-71
2023/10/26 09:09:08;;;;;;;45.05;21.67;;;9.80;99.90;;;;;;4972472;28;20208;-71
2023/10/26 09:11:34;;;;;;;50.50;22.02;;;9.80;99.90;;;;;;4969324;28;20042;-71
2023/10/26 09:14:16;;;;;;;49.83;22.25;;;9.80;99.90;;;;;;4967551;28;20038;-71
2023/10/26 09:16:45;;;;;;;48.55;22.48;;;9.90;99.90;;;;;;4969725;28;20382;-72
2023/10/26 09:19:16;;;;;;;46.15;21.05;;;9.90;99.90;;;;;;4969704;28;20046;-70
2023/10/26 09:21:53;;;;;;;41.53;20.65;;;9.90;99.90;;;;;;4969032;28;20042;-71
2023/10/26 09:24:21;;;;;;;52.30;21.65;;;10.00;99.90;;;;;;4970917;28;20056;-71
2023/10/26 09:26:47;;;;;;;47.30;21.85;;;10.00;99.90;;;;;;4993710;28;20457;-72
2023/10/26 09:29:12;;;;;;;50.15;22.15;;;10.10;99.90;;;;;;4971800;28;20034;-71
2023/10/26 09:31:53;;;;;;;54.97;23.75;;;10.10;99.90;;;;;;4970213;28;20101;-71
2023/10/26 09:34:22;;;;;;;47.92;22.02;;;10.20;99.90;;;;;;4980014;28;20041;-70
2023/10/26 09:37:04;;;;;;;52.83;22.02;;;10.20;99.90;;;;;;4970634;28;20784;-71
2023/10/26 09:39:32;;;;;;;45.95;21.70;;;10.10;99.90;;;;;;4966989;28;20503;-71
2023/10/26 09:41:59;;;;;;;44.42;20.60;;;10.10;99.90;;;;;;4972470;28;20104;-71
2023/10/26 09:44:25;;;;;;;44.97;21.63;;;10.10;99.90;;;;;;4970332;28;20453;-72
2023/10/26 09:46:51;;;;;;;49.22;23.10;;;10.20;99.90;;;;;;4971839;28;20038;-74
2023/10/26 09:49:17;;;;;;;53.78;23.98;;;10.30;99.90;;;;;;4967818;28;20390;-71
2023/10/26 09:51:43;;;;;;;50.50;22.38;;;10.30;99.90;;;;;;4968249;28;20042;-72
2023/10/26 09:54:10;;;;;;;45.15;21.20;;;10.40;99.90;;;;;;4971834;28;20054;-70
2023/10/26 09:56:40;;;;;;;50.00;23.38;;;10.40;99.90;;;;;;4969318;28;20038;-71
2023/10/26 09:59:07;;;;;;;47.55;22.77;;;10.30;99.90;;;;;;4970328;28;20042;-71
2023/10/26 10:01:37;;;;;;;45.45;21.05;;;10.30;99.90;;;;;;4972024;28;20437;-71
2023/10/26 10:04:04;;;;;;;45.05;20.60;;;10.20;99.90;;;;;;4970459;28;20038;-70
2023/10/26 10:06:46;;;;;;;40.25;21.13;;;10.10;99.90;;;;;;4959952;28;20113;-71
2023/10/26 10:09:11;;;;;;;45.58;21.00;;;10.10;99.90;;;;;;4961118;28;20034;-70
2023/10/26 10:11:38;;;;;;;48.28;21.83;;;10.10;99.90;;;;;;4967249;28;20518;-72
2023/10/26 10:14:04;;;;;;;46.53;20.92;;;10.00;99.90;;;;;;4972204;28;20061;-72
2023/10/26 10:16:36;;;;;;;48.20;22.13;;;10.20;99.90;;;;;;4992210;28;20035;-72
2023/10/26 10:19:26;;;;;;;42.45;21.33;;;10.30;99.90;;;;;;4968031;28;20050;-71
2023/10/26 10:21:52;;;;;;;46.80;22.15;;;10.30;99.90;;;;;;4968037;28;20065;-71
2023/10/26 10:24:39;;;;;;;51.22;23.00;;;10.30;99.90;;;;;;4957380;28;20065;-71
2023/10/26 10:27:09;;;;;;;42.47;22.13;;;10.40;99.90;;;;;;4972053;28;20061;-71
2023/10/26 10:29:35;;;;;;;44.25;22.15;;;10.40;99.90;;;;;;4968703;28;20077;-71
2023/10/26 10:32:00;;;;;;;42.10;21.27;;;10.40;99.90;;;;;;4953515;28;20457;-72
2023/10/26 10:34:32;;;;;;;44.00;21.63;;;10.40;99.90;;;;;;4966373;28;20077;-72
2023/10/26 10:37:12;;;;;;;40.75;21.30;;;10.40;99.90;;;;;;4961725;28;20085;-72
2023/10/26 10:39:38;;;;;;;45.40;22.07;;;10.60;99.90;;;;;;4973140;28;20530;-72
2023/10/26 10:42:09;;;;;;;45.22;21.30;;;10.80;99.90;;;;;;4972791;28;20045;-72
2023/10/26 10:44:36;;;;;;;42.38;21.50;;;10.90;99.90;;;;;;4975029;28;20125;-72
2023/10/26 10:47:04;;;;;;;41.90;21.73;;;11.00;99.90;;;;;;4971596;28;20378;-72
2023/10/26 10:49:30;;;;;;;40.78;20.38;;;11.10;99.90;;;;;;4955106;28;20049;-71
2023/10/26 10:51:55;;;;;;;41.50;20.65;;;11.20;99.90;;;;;;4971081;28;20679;-72
2023/10/26 10:54:24;;;;;;;38.95;20.33;;;11.20;99.90;;;;;;4976845;28;20049;-72
2023/10/26 10:56:50;;;;;;;36.97;20.08;;;11.10;99.90;;;;;;4975664;28;20076;-72
2023/10/26 10:59:23;;;;;;;40.38;20.02;;;11.20;99.90;;;;;;4974397;28;20065;-73
2023/10/26 11:01:50;;;;;;;40.42;21.25;;;11.30;99.90;;;;;;4973917;28;20042;-72
2023/10/26 11:04:16;;;;;;;37.95;20.67;;;11.50;99.90;;;;;;4972793;28;20069;-72
2023/10/26 11:06:47;;;;;;;39.30;20.90;;;11.50;99.90;;;;;;4958198;28;20038;-72
2023/10/26 11:09:27;;;;;;;40.42;21.55;;;11.60;99.90;;;;;;4960266;28;20051;-72
2023/10/26 11:11:54;;;;;;;38.30;21.13;;;11.60;99.90;;;;;;4988223;28;20038;-72
2023/10/26 11:14:20;;;;;;;40.85;21.73;;;11.70;99.90;;;;;;4969882;28;20333;-72
2023/10/26 11:16:48;;;;;;;37.53;21.05;;;11.70;99.90;;;;;;4971285;28;20050;-73
2023/10/26 11:19:13;;;;;;;39.35;20.55;;;11.70;99.90;;;;;;4966668;28;20156;-73
2023/10/26 11:21:39;;;;;;;35.90;20.88;;;11.80;99.90;;;;;;4990886;28;20141;-72
2023/10/26 11:24:06;;;;;;;41.60;20.55;;;11.80;99.90;;;;;;4975372;28;20414;-72
2023/10/26 11:26:31;;;;;;;41.20;20.63;;;11.80;99.90;;;;;;4977256;28;20042;-73
2023/10/26 11:28:57;;;;;;;34.20;19.88;;;12.00;99.90;;;;;;4973971;28;20094;-72
2023/10/26 11:31:41;;;;;;;34.72;19.48;;;12.00;99.90;;;;;;4956981;28;20183;-72
2023/10/26 11:34:08;;;;;;;40.83;21.10;;;12.10;99.90;;;;;;4968143;28;20034;-72
2023/10/26 11:36:35;;;;;;;34.20;20.02;;;12.20;99.90;;;;;;4970699;28;20046;-73
2023/10/26 11:39:02;;;;;;;35.45;20.02;;;12.20;99.90;;;;;;4985846;28;20054;-72
2023/10/26 11:41:30;;;;;;;42.10;20.17;;;12.10;99.90;;;;;;4974759;28;20050;-72
2023/10/26 11:43:57;;;;;;;35.20;20.10;;;12.10;99.90;;;;;;4972892;28;20374;-72
2023/10/26 11:46:34;;;;;;;35.15;19.73;;;12.00;99.90;;;;;;4974685;28;20074;-71
2023/10/26 11:49:01;;;;;;;36.50;19.60;;;11.90;99.90;;;;;;4961766;28;20052;-72
2023/10/26 11:51:28;;;;;;;33.03;19.25;;;11.70;99.90;;;;;;4956942;28;20038;-72
2023/10/26 11:53:54;;;;;;;29.92;17.55;;;11.70;99.90;;;;;;4971355;28;20134;-72
2023/10/26 11:56:20;;;;;;;35.85;19.58;;;11.80;99.90;;;;;;4976659;28;20049;-73
2023/10/26 11:58:46;;;;;;;36.92;20.67;;;11.90;99.90;;;;;;4984840;28;20038;-70
2023/10/26 12:01:12;;;;;;;44.20;21.10;;;11.80;99.90;;;;;;4965578;28;20042;-73
2023/10/26 12:03:43;;;;;;;35.70;19.83;;;11.90;99.90;;;;;;4970425;28;20030;-72
2023/10/26 12:06:11;;;;;;;35.30;20.17;;;11.90;99.90;;;;;;4968749;28;20129;-72
2023/10/26 12:08:36;;;;;;;37.78;20.70;;;11.90;99.90;;;;;;4984006;28;20740;-72
2023/10/26 12:11:04;;;;;;;37.33;20.50;;;12.00;99.90;;;;;;4967553;28;20113;-72
2023/10/26 12:13:31;;;;;;;36.72;20.25;;;12.00;99.90;;;;;;4971896;28;20081;-72
2023/10/26 12:15:57;;;;;;;31.40;18.20;;;12.20;99.90;;;;;;4953597;28;20137;-72
2023/10/26 12:18:22;;;;;;;33.95;19.70;;;12.30;99.90;;;;;;4969617;28;20149;-73
2023/10/26 12:20:48;;;;;;;33.97;19.40;;;12.30;99.90;;;;;;4953849;28;20054;-72
2023/10/26 12:23:14;;;;;;;32.55;18.95;;;12.30;99.90;;;;;;4964991;28;20202;-72
2023/10/26 12:25:40;;;;;;;36.53;20.20;;;12.40;99.90;;;;;;4965952;28;20379;-73
2023/10/26 12:28:05;;;;;;;33.60;19.45;;;12.40;99.90;;;;;;4962599;28;20057;-72
2023/10/26 12:30:31;;;;;;;33.50;19.45;;;12.30;99.90;;;;;;4963019;28;20073;-72